Aeroporto :
LOGIN :

Iscrizione | Disclaimer

   EN    FR    IT 

 










Sommario :    VFR   VFR Marginale   IFR   IFR Intensivo   IFR Molto Intensivo
Visibilità : 
Base nubi : 
>= 8 km
>= 3000ft
5 / 8 km
1000 / 3000 ft
1500m / 5 km
500 / 1000 ft
800 / 1500m
200 / 500 ft
< 800m
< 200 ft
Simboli :   Temporali  Nebbia  Neve Forte  Precipitazioni Forti  Vento > 20 kt
SIGMETs :   Varie  Temporali  Ghiacco  Turbolenza  Onda orograficha  Ceneri Vulcaniche






- Altitudine del aeroporto : 218 ft
- Codice IATA : LBG


LFPB - Paris / Le Bourget

ULTIMO METAR :
  • 291700Z AUTO 04013KT CAVOK 23/04 Q1021

METARs OBSOLETI :
  • 291630Z AUTO 07012KT CAVOK 24/04 Q1021
  • 291600Z AUTO 06014KT 030V100 CAVOK 24/03 Q1022
  • 291530Z AUTO 07015KT CAVOK 24/03 Q1022
  • 291500Z AUTO 05013KT 020V090 CAVOK 24/04 Q1022
  • 291430Z AUTO 05013KT CAVOK 24/03 Q1022

TAF TAF LFPB
Valido dal 29 a 12 ore il 30 a 12 ore UTC


291100Z 2912/3012 07012KT CAVOK
ATIS : +33 1 48 62 43 92



MetMap, La meteo Aeronautica in un colpo d'occhio ! - Copyright ORBIFLY Dicembre 2007 - Disclaimer

ORBIFLY MET'MAP TEAM :

Programmazione e sviluppo : Alexandra Zaïnal
Concezione : Baudouin d'Aumeries
Aiuto per la programmazione : Marc-Olivier Méhu
Supporto tecnico e logistico : Manuel Goepfert
Aiuto per la traduzione : Arnaldo La Scala

Contatto : metmap@orbifly.com




FONTI E CREDITI :

   NOAA